Erie, PA

4:21 PM EDT on September 03, 2015 (GMT -0400)
South Erie | | Change Station
CLOSE
Current Station
Personal Weather Station
Location: Erie, PA
Elevation: 833 ft
Nearby Weather Stations
Active Advisory: Severe Thunderstorm Warning

Elev 833 ft 42.09 °N, 80.08 °W | Updated 4 seconds ago

Clear
Clear
82.2 °F
Feels Like 87 °F
N
0.0
Wind Variable Wind from WNW
Gusts 0.0 mph

Today
High -- | Low -- °F
--% Chance of Precip.
Yesterday
High -- | Low -- °F
Precip. -- in
6:47 AM 7:51 PM
Waning Gibbous, 67% visible
Pressure 29.92 in
Visibility 9.0 miles
Clouds Clear
Heat Index 87 °F
Dew Point 71 °F
Humidity 70%
Rainfall 0.00 in
Snow Depth Not available.
UV 5 out of 12
Pollen 10.30 out of 12
Air Quality Not available.
Flu Activity Not available.
METAR KERI 031951Z 29005KT 9SM CLR 27/20 A2994 RMK AO2 SLP132 T02720200
Pressure 29.92 in
Visibility 9.0 miles
Clouds Clear
Heat Index 87 °F
Dew Point 71 °F
Humidity 70%
Rainfall 0.00 in
Snow Depth Not available.
UV 5 out of 12
Pollen 10.30 out of 12
Air Quality Not available.
Flu Activity Not available.
METAR KERI 031951Z 29005KT 9SM CLR 27/20 A2994 RMK AO2 SLP132 T02720200

10-Day Weather Forecast

×

Almanac

Astronomy

Sep. 03, 2015 Rise Set
Actual Time
Civil Twilight
Nautical Twilight
Astronomical Twilight
Moon
Length of Visible Light
Length of Day
Tomorrow will be .
, % of the Moon is Illuminated

Today's Extremes

State Highs State Lows

Community

WunderPhotos

Upload Photos

1,852,029 photos uploaded!

WunderBlogs® & News

Nearby

Air Quality

  Air Quality AQ Index Pollutant
Not available.

Snow Depth

Station Depth Elevation

Earthquake Activity

City Distance Mag. Time & Date
Minimum magnitude displayed is 2.5.

Coastal Water Temperatures

Place Temperature

Stations

Nearby Weather Stations

Station Location Temp. Windchill Dew Point Humidity Wind Precip. Elev Updated Type
                   
Severe Thunderstorm Warning
Statement as of 4:10 PM EDT on September 03, 2015

... A Severe Thunderstorm Warning remains in effect until 430 PM EDT
for southeastern Erie County...

At 409 PM EDT... a severe thunderstorm was located near
Wattsburg... or 22 miles southeast of Erie... moving east at 15 mph.
Another storm was located northwest of Union City moving east at 15
mph.

Hazard... 60 mph wind gusts and quarter size hail.

Source... radar indicated.

Impact... hail damage to vehicles is expected. Expect wind damage to
         roofs... siding and trees.

Locations impacted include...
Corry... Edinboro... Union City... Waterford... Wattsburg... Mill Village
and Elgin.

Precautionary/preparedness actions...

For your protection move to an interior room on the lowest floor of a
building.


Lat... Lon 4185 7961 4185 8037 4210 7981 4206 7976
      4201 7976 4200 7975 4200 7968 4195 7961
time... Mot... loc 2009z 285deg 11kt 4198 7974

Hail... 1.00in
wind... 60mph


Jamison